createdAt,value
2022-09-13T00:01:16.383Z,12.74
2022-09-13T00:03:43.694Z,12.74
2022-09-13T00:06:18.376Z,12.72
2022-09-13T00:08:46.617Z,12.73
2022-09-13T00:11:18.960Z,12.70
2022-09-13T00:13:47.573Z,12.71
2022-09-13T00:16:18.501Z,12.69
2022-09-13T00:18:46.273Z,12.68
2022-09-13T00:21:17.381Z,12.71
2022-09-13T00:23:50.866Z,12.68
2022-09-13T00:26:28.013Z,12.68
2022-09-13T00:28:58.503Z,12.70
2022-09-13T00:31:28.350Z,12.72
2022-09-13T00:33:58.417Z,12.71
2022-09-13T00:36:25.663Z,12.68
2022-09-13T00:38:53.002Z,12.52
2022-09-13T00:41:21.886Z,12.56
2022-09-13T00:43:57.498Z,12.56
2022-09-13T00:46:42.520Z,12.51
2022-09-13T00:49:27.926Z,12.49
2022-09-13T00:52:07.328Z,12.47
2022-09-13T00:54:42.852Z,12.47
2022-09-13T00:57:13.025Z,12.46
2022-09-13T01:00:02.955Z,12.46
2022-09-13T01:02:30.957Z,12.45
2022-09-13T01:04:58.517Z,12.44
2022-09-13T01:07:25.795Z,12.38
2022-09-13T01:09:54.017Z,12.34
2022-09-13T01:12:49.249Z,12.29
2022-09-13T01:15:16.400Z,12.24
2022-09-13T01:17:44.351Z,12.26
2022-09-13T01:20:13.016Z,12.24
2022-09-13T01:22:48.808Z,12.22
2022-09-13T01:25:34.186Z,12.22
2022-09-13T01:28:24.495Z,12.16
2022-09-13T01:31:10.123Z,12.16
2022-09-13T01:33:54.905Z,12.15
2022-09-13T01:36:56.832Z,12.13
2022-09-13T01:39:52.378Z,12.14
2022-09-13T01:42:59.475Z,12.11
2022-09-13T01:46:06.208Z,12.11
2022-09-13T01:49:19.986Z,12.10
2022-09-13T01:52:16.542Z,12.10
2022-09-13T01:55:02.209Z,12.10
2022-09-13T01:58:05.992Z,12.08
2022-09-13T02:00:59.966Z,12.11
2022-09-13T02:03:37.795Z,12.11
2022-09-13T02:06:17.310Z,12.10
2022-09-13T02:08:55.216Z,12.13
2022-09-13T02:11:24.066Z,12.13
2022-09-13T02:14:21.375Z,12.14
2022-09-13T02:17:01.489Z,12.13
2022-09-13T02:20:10.170Z,12.12
2022-09-13T02:22:46.149Z,12.11
2022-09-13T02:25:19.528Z,12.06
2022-09-13T02:27:53.315Z,11.93
2022-09-13T02:30:20.851Z,11.95
2022-09-13T02:33:08.309Z,11.91
2022-09-13T02:35:54.734Z,11.87
2022-09-13T02:38:43.349Z,11.89
2022-09-13T02:41:21.886Z,11.89
2022-09-13T02:44:06.468Z,11.85
2022-09-13T02:47:31.894Z,11.73
2022-09-13T02:50:16.033Z,11.70
2022-09-13T02:53:04.052Z,11.69
2022-09-13T02:55:54.987Z,11.71
2022-09-13T02:58:29.168Z,11.73
2022-09-13T03:00:56.628Z,11.67
2022-09-13T03:03:25.113Z,11.66
2022-09-13T03:05:53.773Z,11.63
2022-09-13T03:08:24.457Z,11.50
2022-09-13T03:11:05.982Z,11.41
2022-09-13T03:14:20.469Z,11.41
2022-09-13T03:17:15.648Z,11.35
2022-09-13T03:20:24.570Z,11.35
2022-09-13T03:23:35.990Z,11.33
2022-09-13T03:26:46.462Z,11.26
2022-09-13T03:29:58.949Z,11.28
2022-09-13T03:33:13.802Z,11.28
2022-09-13T03:35:50.863Z,11.23
2022-09-13T03:39:00.618Z,11.24
2022-09-13T03:41:39.507Z,11.19
2022-09-13T03:44:16.912Z,11.19
2022-09-13T03:46:48.748Z,11.14
2022-09-13T03:49:20.205Z,11.10
2022-09-13T03:51:51.296Z,11.14
2022-09-13T03:54:32.363Z,11.16
2022-09-13T03:57:18.459Z,11.09
2022-09-13T03:59:52.688Z,11.08
2022-09-13T04:02:22.050Z,11.08
2022-09-13T04:04:49.623Z,10.87
2022-09-13T04:07:23.113Z,10.97
2022-09-13T04:09:50.463Z,11.00
2022-09-13T04:12:18.999Z,11.03
2022-09-13T04:14:46.222Z,11.02
2022-09-13T04:17:14.730Z,10.99
2022-09-13T04:19:42.983Z,11.05
2022-09-13T04:22:10.168Z,11.05
2022-09-13T04:24:37.282Z,11.05
2022-09-13T04:27:04.694Z,11.09
2022-09-13T04:29:32.022Z,11.09
2022-09-13T04:31:59.904Z,11.14
2022-09-13T04:34:27.224Z,11.18
2022-09-13T04:36:54.596Z,11.23
2022-09-13T04:39:22.502Z,11.23
2022-09-13T04:41:51.385Z,11.25
2022-09-13T04:44:18.874Z,11.25
2022-09-13T04:46:50.212Z,11.27
2022-09-13T04:49:18.886Z,11.20
2022-09-13T04:51:49.056Z,11.19
2022-09-13T04:54:16.586Z,11.20
2022-09-13T04:56:45.522Z,11.14
2022-09-13T04:59:13.315Z,11.17
2022-09-13T05:01:41.071Z,11.12
2022-09-13T05:04:09.796Z,11.07
2022-09-13T05:06:37.663Z,11.07
2022-09-13T05:09:05.717Z,11.08
2022-09-13T05:11:33.335Z,11.06
2022-09-13T05:14:01.396Z,11.05
2022-09-13T05:16:32.228Z,11.09
2022-09-13T05:19:00.972Z,11.09
2022-09-13T05:21:29.334Z,11.12
2022-09-13T05:23:58.036Z,11.14
2022-09-13T05:26:28.131Z,11.19
2022-09-13T05:28:55.319Z,11.19
2022-09-13T05:31:30.671Z,11.21
2022-09-13T05:34:14.195Z,11.24
2022-09-13T05:36:42.557Z,11.26
2022-09-13T05:42:02.625Z,11.28
2022-09-13T05:44:29.937Z,11.33
2022-09-13T05:46:57.084Z,11.33
2022-09-13T05:49:24.265Z,11.31
2022-09-13T05:51:51.496Z,11.32
2022-09-13T05:54:18.619Z,11.36
2022-09-13T05:56:45.909Z,11.39
2022-09-13T05:59:14.020Z,11.43
2022-09-13T06:01:41.420Z,11.44
2022-09-13T06:04:08.845Z,11.44
2022-09-13T06:06:36.100Z,11.44
2022-09-13T06:09:03.603Z,11.46
2022-09-13T06:11:31.539Z,11.52
2022-09-13T06:13:58.778Z,11.60
2022-09-13T06:16:26.300Z,11.67
2022-09-13T06:18:53.564Z,11.73
2022-09-13T06:21:28.231Z,11.82
2022-09-13T06:23:56.388Z,11.91
2022-09-13T06:26:27.395Z,11.97
2022-09-13T06:28:57.685Z,12.08
2022-09-13T06:31:28.409Z,12.21
2022-09-13T06:34:01.607Z,12.31
2022-09-13T06:36:29.341Z,12.39
2022-09-13T06:38:56.471Z,12.49
2022-09-13T06:41:25.143Z,12.52
2022-09-13T06:43:58.873Z,12.65
2022-09-13T06:46:29.420Z,12.78
2022-09-13T06:49:01.493Z,12.93
2022-09-13T06:51:37.585Z,13.03
2022-09-13T06:54:05.511Z,13.14
2022-09-13T06:56:38.653Z,13.25
2022-09-13T06:59:10.884Z,13.37
2022-09-13T07:01:42.323Z,13.48
2022-09-13T07:04:18.596Z,13.57
2022-09-13T07:06:49.240Z,13.71
2022-09-13T07:09:22.178Z,13.83
2022-09-13T07:11:54.725Z,13.93
2022-09-13T07:14:28.096Z,14.01
2022-09-13T07:16:56.124Z,14.07
2022-09-13T07:19:26.319Z,14.17
2022-09-13T07:21:55.965Z,14.29
2022-09-13T07:24:24.068Z,14.37
2022-09-13T07:26:51.834Z,14.45
2022-09-13T07:29:22.831Z,14.53
2022-09-13T07:31:55.406Z,14.60
2022-09-13T07:34:25.736Z,14.69
2022-09-13T07:36:53.800Z,14.76
2022-09-13T07:39:22.996Z,14.84
2022-09-13T07:41:52.136Z,14.90
2022-09-13T07:44:19.445Z,14.95
2022-09-13T07:46:46.672Z,15.01
2022-09-13T07:49:19.434Z,15.10
2022-09-13T07:51:46.702Z,15.18
2022-09-13T07:54:18.126Z,15.23
2022-09-13T07:56:46.199Z,15.32
2022-09-13T07:59:16.746Z,15.38
2022-09-13T08:01:48.040Z,15.41
2022-09-13T08:04:19.235Z,15.50
2022-09-13T08:06:47.717Z,15.57
2022-09-13T08:09:16.481Z,15.65
2022-09-13T08:11:53.606Z,15.74
2022-09-13T08:14:23.191Z,15.81
2022-09-13T08:16:51.225Z,15.89
2022-09-13T08:19:19.502Z,15.99
2022-09-13T08:21:47.811Z,16.07
2022-09-13T08:24:22.530Z,16.14
2022-09-13T08:26:50.452Z,16.20
2022-09-13T08:29:17.780Z,16.27
2022-09-13T08:31:45.308Z,16.26
2022-09-13T08:34:17.376Z,16.39
2022-09-13T08:36:45.120Z,16.44
2022-09-13T08:39:13.191Z,16.47
2022-09-13T08:41:40.357Z,16.54
2022-09-13T08:44:43.049Z,16.63
2022-09-13T08:47:39.761Z,16.65
2022-09-13T08:50:23.777Z,16.76
2022-09-13T08:53:08.560Z,16.82
2022-09-13T08:56:23.270Z,16.93
2022-09-13T08:59:16.430Z,17.07
2022-09-13T09:02:41.290Z,17.16
2022-09-13T09:05:31.136Z,17.24
2022-09-13T09:08:22.750Z,17.32
2022-09-13T09:10:53.180Z,17.38
2022-09-13T09:13:53.928Z,17.47
2022-09-13T09:16:48.446Z,17.57
2022-09-13T09:19:33.036Z,17.65
2022-09-13T09:22:04.437Z,17.75
2022-09-13T09:24:37.527Z,17.83
2022-09-13T09:27:16.643Z,17.87
2022-09-13T09:29:46.026Z,17.90
2022-09-13T09:32:52.920Z,17.97
2022-09-13T09:36:07.623Z,18.05
2022-09-13T09:38:42.617Z,18.09
2022-09-13T09:41:32.439Z,18.19
2022-09-13T09:44:22.506Z,18.30
2022-09-13T09:47:13.505Z,18.38
2022-09-13T09:49:55.986Z,18.46
2022-09-13T09:53:07.550Z,18.56
2022-09-13T09:55:58.625Z,18.66
2022-09-13T09:58:46.604Z,18.68
2022-09-13T10:01:28.090Z,18.82
2022-09-13T10:04:19.722Z,18.91
2022-09-13T10:06:47.103Z,19.00
2022-09-13T10:09:14.602Z,19.12
2022-09-13T10:11:54.068Z,19.23
2022-09-13T10:14:38.158Z,19.37
2022-09-13T10:17:14.501Z,19.43
2022-09-13T10:19:50.809Z,19.65
2022-09-13T10:22:18.380Z,19.93
2022-09-13T10:24:45.892Z,20.39
2022-09-13T10:27:25.157Z,21.33
2022-09-13T10:29:55.729Z,22.74
2022-09-13T10:32:23.658Z,24.34
2022-09-13T10:34:52.228Z,25.96
2022-09-13T10:37:29.272Z,27.44
2022-09-13T10:40:06.328Z,28.60
2022-09-13T10:42:34.920Z,29.04
2022-09-13T10:45:04.576Z,29.16
2022-09-13T10:47:54.799Z,29.02
2022-09-13T10:50:26.190Z,28.81
2022-09-13T10:53:00.419Z,28.74
2022-09-13T10:55:30.182Z,28.90
2022-09-13T10:58:03.806Z,29.23
2022-09-13T11:01:03.982Z,29.13
2022-09-13T11:04:00.400Z,28.70
2022-09-13T11:06:50.302Z,28.09
2022-09-13T11:09:44.108Z,27.49
2022-09-13T11:12:28.657Z,27.39
2022-09-13T11:15:14.918Z,27.64
2022-09-13T11:18:06.480Z,27.86
2022-09-13T11:20:52.066Z,27.99
2022-09-13T11:23:30.222Z,28.06
2022-09-13T11:26:23.733Z,28.31
2022-09-13T11:29:31.067Z,28.60
2022-09-13T11:32:19.125Z,28.50
2022-09-13T11:35:29.593Z,28.41
2022-09-13T11:38:21.687Z,28.14
2022-09-13T11:41:03.327Z,27.82
2022-09-13T11:43:36.079Z,27.51
2022-09-13T11:46:21.577Z,27.50
2022-09-13T11:48:58.955Z,27.56
2022-09-13T11:51:47.137Z,27.81
2022-09-13T11:54:55.203Z,28.09
2022-09-13T11:57:32.886Z,28.07
2022-09-13T12:00:15.527Z,28.19
2022-09-13T12:03:08.809Z,28.38
2022-09-13T12:05:44.593Z,28.74
2022-09-13T12:08:22.868Z,28.90
2022-09-13T12:11:04.802Z,29.01
2022-09-13T12:14:02.659Z,29.08
2022-09-13T12:16:40.650Z,28.69
2022-09-13T12:19:29.123Z,28.71
2022-09-13T12:22:01.086Z,28.76
2022-09-13T12:24:53.612Z,28.74
2022-09-13T12:27:47.497Z,28.74
2022-09-13T12:30:19.643Z,28.64
2022-09-13T12:32:49.403Z,28.65
2022-09-13T12:36:11.136Z,28.60
2022-09-13T12:39:19.416Z,28.60
2022-09-13T12:42:23.825Z,28.46
2022-09-13T12:45:16.123Z,28.37
2022-09-13T12:48:09.928Z,28.27
2022-09-13T12:51:07.510Z,28.24
2022-09-13T12:54:04.153Z,28.19
2022-09-13T12:57:25.874Z,28.06
2022-09-13T13:00:24.114Z,28.09
2022-09-13T13:03:04.824Z,28.05
2022-09-13T13:05:41.427Z,28.07
2022-09-13T13:08:30.656Z,28.12
2022-09-13T13:11:14.343Z,28.11
2022-09-13T13:13:53.368Z,28.13
2022-09-13T13:16:28.616Z,28.18
2022-09-13T13:19:02.737Z,28.19
2022-09-13T13:21:39.646Z,28.16
2022-09-13T13:24:27.794Z,28.18
2022-09-13T13:26:59.455Z,28.13
2022-09-13T13:29:30.463Z,28.14
2022-09-13T13:31:57.672Z,28.19
2022-09-13T13:34:51.050Z,28.22
2022-09-13T13:37:18.163Z,28.26
2022-09-13T13:39:48.871Z,28.34
2022-09-13T13:42:31.507Z,28.42
2022-09-13T13:45:01.439Z,28.48
2022-09-13T13:47:29.123Z,28.58
2022-09-13T13:50:17.415Z,28.66
2022-09-13T13:52:47.384Z,28.78
2022-09-13T13:55:43.348Z,28.83
2022-09-13T13:58:16.170Z,28.98
2022-09-13T14:00:51.218Z,29.14
2022-09-13T14:03:55.032Z,29.24
2022-09-13T14:07:00.475Z,29.30
2022-09-13T14:09:57.766Z,29.41
2022-09-13T14:12:36.695Z,29.46
2022-09-13T14:15:28.880Z,29.52
2022-09-13T14:18:27.156Z,29.48
2022-09-13T14:21:03.452Z,29.29
2022-09-13T14:23:31.809Z,29.03
2022-09-13T14:26:01.101Z,28.65
2022-09-13T14:28:28.761Z,28.31
2022-09-13T14:30:59.856Z,27.98
2022-09-13T14:33:33.569Z,27.69
2022-09-13T14:36:20.646Z,27.35
2022-09-13T14:38:57.235Z,27.23
2022-09-13T14:41:38.456Z,27.06
2022-09-13T14:44:28.934Z,26.91
2022-09-13T14:47:21.207Z,26.82
2022-09-13T14:49:59.957Z,26.85
2022-09-13T14:52:35.511Z,26.93
2022-09-13T14:55:23.993Z,27.10
2022-09-13T14:58:00.378Z,27.36
2022-09-13T15:00:28.711Z,27.63
2022-09-13T15:03:01.392Z,27.88
2022-09-13T15:05:34.045Z,28.07
2022-09-13T15:08:43.063Z,28.13
2022-09-13T15:11:35.309Z,28.18
2022-09-13T15:14:35.027Z,28.13
2022-09-13T15:17:13.637Z,28.06
2022-09-13T15:19:50.523Z,28.13
2022-09-13T15:22:25.013Z,28.20
2022-09-13T15:25:03.666Z,28.09
2022-09-13T15:27:47.508Z,27.84
2022-09-13T15:30:26.372Z,27.55
2022-09-13T15:33:11.921Z,27.19
2022-09-13T15:35:47.608Z,26.98
2022-09-13T15:38:31.146Z,26.89
2022-09-13T15:41:13.502Z,26.88
2022-09-13T15:43:40.785Z,26.91
2022-09-13T15:46:15.473Z,26.94
2022-09-13T15:48:56.779Z,26.93
2022-09-13T15:51:24.054Z,27.00
2022-09-13T15:53:52.085Z,27.02
2022-09-13T15:56:31.617Z,27.07
2022-09-13T15:58:59.218Z,27.04
2022-09-13T16:01:26.739Z,27.09
2022-09-13T16:03:54.340Z,27.05
2022-09-13T16:06:24.557Z,26.95
2022-09-13T16:08:51.984Z,26.73
2022-09-13T16:11:19.232Z,26.51
2022-09-13T16:13:46.398Z,26.26
2022-09-13T16:16:16.409Z,26.05
2022-09-13T16:18:43.820Z,25.86
2022-09-13T16:21:11.064Z,25.65
2022-09-13T16:23:38.226Z,25.47
2022-09-13T16:26:06.139Z,25.33
2022-09-13T16:28:33.436Z,25.17
2022-09-13T16:31:00.761Z,25.06
2022-09-13T16:33:28.043Z,24.93
2022-09-13T16:35:58.012Z,24.79
2022-09-13T16:38:28.749Z,24.62
2022-09-13T16:40:55.851Z,24.50
2022-09-13T16:43:23.303Z,24.33
2022-09-13T16:45:52.814Z,24.23
2022-09-13T16:48:19.940Z,24.09
2022-09-13T16:50:47.084Z,24.00
2022-09-13T16:53:14.250Z,23.92
2022-09-13T16:55:41.510Z,23.83
2022-09-13T16:58:09.007Z,23.72
2022-09-13T17:00:36.141Z,23.63
2022-09-13T17:03:03.837Z,23.52
2022-09-13T17:05:31.047Z,23.40
2022-09-13T17:07:58.287Z,23.33
2022-09-13T17:10:25.528Z,23.23
2022-09-13T17:12:52.767Z,23.13
2022-09-13T17:15:20.054Z,23.05
2022-09-13T17:17:47.321Z,23.00
2022-09-13T17:20:14.691Z,22.89
2022-09-13T17:22:41.950Z,22.77
2022-09-13T17:25:10.616Z,22.68
2022-09-13T17:27:37.981Z,22.57
2022-09-13T17:30:06.312Z,22.55
2022-09-13T17:32:33.662Z,22.50
2022-09-13T17:35:00.833Z,22.43
2022-09-13T17:37:28.399Z,22.33
2022-09-13T17:39:55.730Z,22.29
2022-09-13T17:42:23.633Z,22.23
2022-09-13T17:44:51.215Z,22.21
2022-09-13T17:47:18.361Z,22.16
2022-09-13T17:49:45.636Z,22.14
2022-09-13T17:52:12.805Z,22.08
2022-09-13T17:54:40.072Z,21.99
2022-09-13T17:57:07.675Z,22.00
2022-09-13T17:59:34.819Z,21.92
2022-09-13T18:02:02.334Z,21.91
2022-09-13T18:04:29.769Z,21.86
2022-09-13T18:06:57.064Z,21.81
2022-09-13T18:09:24.315Z,21.75
2022-09-13T18:11:51.821Z,21.68
2022-09-13T18:14:20.783Z,21.63
2022-09-13T18:16:48.429Z,21.59
2022-09-13T18:19:44.956Z,21.53
2022-09-13T18:22:12.317Z,21.48
2022-09-13T18:24:39.525Z,21.43
2022-09-13T18:27:06.795Z,21.37
2022-09-13T18:29:34.086Z,21.33
2022-09-13T18:32:01.510Z,21.33
2022-09-13T18:34:28.785Z,21.26
2022-09-13T18:36:59.209Z,21.21
2022-09-13T18:39:26.383Z,21.15
2022-09-13T18:41:54.039Z,20.95
2022-09-13T18:44:24.744Z,20.98
2022-09-13T18:46:52.061Z,20.94
2022-09-13T18:49:19.265Z,20.97
2022-09-13T18:51:46.426Z,20.94
2022-09-13T18:54:16.510Z,20.89
2022-09-13T18:56:46.681Z,20.88
2022-09-13T18:59:14.594Z,20.83
2022-09-13T19:01:44.157Z,20.77
2022-09-13T19:04:17.856Z,20.73
2022-09-13T19:06:50.351Z,20.73
2022-09-13T19:09:18.629Z,20.70
2022-09-13T19:11:48.731Z,20.68
2022-09-13T19:14:23.346Z,20.66
2022-09-13T19:16:52.413Z,20.63
2022-09-13T19:19:19.722Z,20.63
2022-09-13T19:21:46.951Z,20.60
2022-09-13T19:24:17.294Z,20.59
2022-09-13T19:26:47.988Z,20.54
2022-09-13T19:29:18.703Z,20.53
2022-09-13T19:31:52.293Z,20.52
2022-09-13T19:34:21.724Z,20.51
2022-09-13T19:36:50.393Z,20.46
2022-09-13T19:39:17.929Z,20.41
2022-09-13T19:41:45.101Z,20.38
2022-09-13T19:44:15.406Z,20.36
2022-09-13T19:46:43.447Z,20.34
2022-09-13T19:49:16.573Z,20.31
2022-09-13T19:51:48.853Z,20.26
2022-09-13T19:54:19.299Z,20.23
2022-09-13T19:56:46.810Z,20.19
2022-09-13T19:59:17.037Z,20.13
2022-09-13T20:01:47.083Z,20.04
2022-09-13T20:04:18.748Z,20.00
2022-09-13T20:06:49.551Z,19.93
2022-09-13T20:09:20.539Z,19.86
2022-09-13T20:11:48.776Z,19.83
2022-09-13T20:14:20.247Z,19.77
2022-09-13T20:16:48.548Z,19.77
2022-09-13T20:19:39.332Z,19.74
2022-09-13T20:22:06.681Z,19.72
2022-09-13T20:24:33.889Z,19.69
2022-09-13T20:27:01.087Z,19.65
2022-09-13T20:29:28.243Z,19.55
2022-09-13T20:31:55.555Z,19.52
2022-09-13T20:34:22.890Z,19.48
2022-09-13T20:36:50.088Z,19.44
2022-09-13T20:39:17.269Z,19.42
2022-09-13T20:41:44.801Z,19.38
2022-09-13T20:44:12.550Z,19.36
2022-09-13T20:46:40.040Z,19.31
2022-09-13T20:49:08.691Z,19.26
2022-09-13T20:51:36.654Z,19.21
2022-09-13T20:54:04.328Z,19.18
2022-09-13T20:56:32.136Z,19.14
2022-09-13T20:58:59.661Z,19.09
2022-09-13T21:01:29.708Z,19.05
2022-09-13T21:03:58.085Z,19.00
2022-09-13T21:06:29.125Z,18.97
2022-09-13T21:08:57.098Z,18.95
2022-09-13T21:11:32.968Z,18.92
2022-09-13T21:14:04.737Z,18.88
2022-09-13T21:16:36.135Z,18.83
2022-09-13T21:19:03.915Z,18.79
2022-09-13T21:21:35.133Z,18.79
2022-09-13T21:24:04.091Z,18.76
2022-09-13T21:26:32.296Z,18.72
2022-09-13T21:29:00.189Z,18.70
2022-09-13T21:31:33.161Z,18.64
2022-09-13T21:34:07.202Z,18.62
2022-09-13T21:36:35.897Z,18.60
2022-09-13T21:39:05.213Z,18.52
2022-09-13T21:41:33.311Z,18.53
2022-09-13T21:44:01.037Z,18.51
2022-09-13T21:46:35.183Z,18.49
2022-09-13T21:49:05.793Z,18.45
2022-09-13T21:51:36.849Z,18.43
2022-09-13T21:54:08.227Z,18.39
2022-09-13T21:56:39.833Z,18.40
2022-09-13T21:59:15.533Z,18.35
2022-09-13T22:01:47.989Z,18.33
2022-09-13T22:04:22.881Z,18.35
2022-09-13T22:06:51.841Z,18.33
2022-09-13T22:09:21.113Z,18.33
2022-09-13T22:11:49.653Z,18.34
2022-09-13T22:14:19.535Z,18.33
2022-09-13T22:16:46.759Z,18.33
2022-09-13T22:19:21.592Z,18.33
2022-09-13T22:21:53.438Z,18.33
2022-09-13T22:24:23.996Z,18.37
2022-09-13T22:26:52.757Z,18.38
2022-09-13T22:29:21.527Z,18.35
2022-09-13T22:31:51.202Z,18.33
2022-09-13T22:34:24.260Z,18.31
2022-09-13T22:36:54.186Z,18.28
2022-09-13T22:39:21.366Z,18.25
2022-09-13T22:41:48.596Z,18.21
2022-09-13T22:44:15.745Z,18.20
2022-09-13T22:46:46.702Z,18.20
2022-09-13T22:49:22.979Z,18.15
2022-09-13T22:51:50.146Z,18.10
2022-09-13T22:54:19.517Z,18.09
2022-09-13T22:56:48.151Z,18.08
2022-09-13T22:59:20.063Z,18.02
2022-09-13T23:01:48.672Z,17.96
2022-09-13T23:04:16.182Z,17.95
2022-09-13T23:06:44.238Z,17.93
2022-09-13T23:09:17.049Z,17.92
2022-09-13T23:11:45.134Z,17.91
2022-09-13T23:14:15.238Z,17.90
2022-09-13T23:16:45.944Z,17.87
2022-09-13T23:19:15.020Z,17.85
2022-09-13T23:21:43.850Z,17.80
2022-09-13T23:24:15.585Z,17.78
2022-09-13T23:26:44.473Z,17.75
2022-09-13T23:29:15.980Z,17.75
2022-09-13T23:31:43.917Z,17.77
2022-09-13T23:34:12.667Z,17.83
2022-09-13T23:36:42.808Z,17.79
2022-09-13T23:39:15.563Z,17.85
2022-09-13T23:41:43.458Z,17.84
2022-09-13T23:44:10.715Z,17.86
2022-09-13T23:46:38.004Z,17.88
2022-09-13T23:49:05.275Z,17.91
2022-09-13T23:51:32.764Z,17.92
2022-09-13T23:54:00.202Z,17.92
2022-09-13T23:56:31.541Z,17.88
2022-09-13T23:59:01.697Z,17.78
